createdAt,value
2017-12-04T00:01:35.917Z,4.90
2017-12-04T00:04:02.273Z,4.80
2017-12-04T00:06:28.612Z,4.80
2017-12-04T00:08:54.971Z,4.80
2017-12-04T00:11:21.287Z,4.90
2017-12-04T00:13:47.607Z,4.80
2017-12-04T00:16:13.948Z,4.90
2017-12-04T00:18:40.301Z,4.90
2017-12-04T00:21:06.666Z,4.90
2017-12-04T00:23:32.954Z,4.90
2017-12-04T00:26:00.003Z,4.90
2017-12-04T00:28:26.314Z,4.80
2017-12-04T00:30:52.635Z,4.90
2017-12-04T00:33:18.968Z,4.90
2017-12-04T00:35:45.260Z,4.80
2017-12-04T00:38:11.566Z,4.90
2017-12-04T00:40:38.620Z,4.90
2017-12-04T00:43:04.913Z,4.90
2017-12-04T00:45:31.236Z,4.90
2017-12-04T00:47:57.524Z,4.90
2017-12-04T00:50:23.824Z,4.90
2017-12-04T00:52:50.906Z,5.00
2017-12-04T00:55:17.236Z,4.90
2017-12-04T00:57:43.539Z,5.00
2017-12-04T01:00:10.598Z,4.90
2017-12-04T01:02:36.923Z,4.80
2017-12-04T01:05:03.235Z,4.90
2017-12-04T01:07:29.626Z,4.90
2017-12-04T01:09:55.950Z,4.90
2017-12-04T01:12:22.285Z,4.80
2017-12-04T01:14:48.608Z,4.80
2017-12-04T01:17:14.918Z,4.80
2017-12-04T01:19:48.210Z,4.70
2017-12-04T01:22:14.527Z,4.70
2017-12-04T01:24:40.825Z,4.60
2017-12-04T01:27:07.152Z,4.60
2017-12-04T01:29:33.480Z,4.60
2017-12-04T01:32:01.263Z,4.30
2017-12-04T01:34:27.565Z,4.30
2017-12-04T01:36:53.866Z,4.40
2017-12-04T01:39:20.189Z,4.40
2017-12-04T01:41:46.517Z,4.30
2017-12-04T01:44:12.822Z,4.30
2017-12-04T01:46:39.165Z,4.30
2017-12-04T01:49:06.253Z,4.20
2017-12-04T01:51:32.957Z,4.20
2017-12-04T01:53:59.316Z,4.20
2017-12-04T01:56:25.619Z,4.10
2017-12-04T01:58:51.943Z,4.10
2017-12-04T02:01:18.266Z,4.10
2017-12-04T02:03:44.580Z,4.10
2017-12-04T02:06:11.633Z,4.10
2017-12-04T02:08:38.705Z,4.00
2017-12-04T02:11:06.442Z,4.00
2017-12-04T02:13:32.867Z,4.10
2017-12-04T02:15:59.203Z,4.20
2017-12-04T02:18:26.253Z,4.20
2017-12-04T02:20:53.308Z,4.20
2017-12-04T02:23:20.361Z,4.10
2017-12-04T02:25:46.687Z,4.10
2017-12-04T02:28:13.028Z,4.20
2017-12-04T02:30:39.358Z,4.30
2017-12-04T02:33:05.668Z,4.20
2017-12-04T02:35:32.752Z,4.30
2017-12-04T02:37:59.089Z,4.30
2017-12-04T02:40:25.418Z,4.20
2017-12-04T02:42:51.749Z,4.30
2017-12-04T02:45:18.117Z,4.30
2017-12-04T02:47:44.487Z,4.30
2017-12-04T02:50:10.808Z,4.40
2017-12-04T02:52:37.145Z,4.40
2017-12-04T02:55:04.226Z,4.40
2017-12-04T02:57:30.574Z,4.40
2017-12-04T02:59:56.947Z,4.50
2017-12-04T03:02:23.990Z,4.40
2017-12-04T03:04:51.030Z,4.40
2017-12-04T03:07:18.085Z,4.40
2017-12-04T03:09:45.118Z,4.50
2017-12-04T03:12:11.430Z,4.40
2017-12-04T03:14:37.727Z,4.40
2017-12-04T03:17:04.052Z,4.40
2017-12-04T03:19:30.415Z,4.40
2017-12-04T03:21:56.767Z,4.40
2017-12-04T03:24:23.829Z,4.50
2017-12-04T03:26:50.893Z,4.40
2017-12-04T03:29:17.229Z,4.30
2017-12-04T03:31:43.573Z,4.40
2017-12-04T03:34:09.910Z,4.30
2017-12-04T03:36:36.235Z,4.30
2017-12-04T03:39:04.151Z,4.50
2017-12-04T03:41:31.773Z,4.50
2017-12-04T03:43:58.107Z,4.50
2017-12-04T03:46:24.460Z,4.60
2017-12-04T03:48:50.762Z,4.50
2017-12-04T03:51:17.071Z,4.50
2017-12-04T03:53:44.104Z,4.40
2017-12-04T03:56:11.117Z,4.70
2017-12-04T03:58:37.433Z,4.60
2017-12-04T04:01:03.713Z,4.60
2017-12-04T04:03:30.759Z,4.60
2017-12-04T04:05:57.866Z,4.60
2017-12-04T04:08:24.209Z,4.60
2017-12-04T04:10:51.993Z,4.40
2017-12-04T04:13:19.032Z,4.50
2017-12-04T04:15:45.317Z,4.40
2017-12-04T04:18:11.613Z,4.40
2017-12-04T04:20:38.653Z,4.50
2017-12-04T04:23:05.710Z,4.40
2017-12-04T04:25:32.008Z,4.30
2017-12-04T04:27:59.796Z,4.10
2017-12-04T04:30:26.836Z,4.20
2017-12-04T04:32:53.866Z,4.30
2017-12-04T04:35:20.173Z,4.20
2017-12-04T04:37:46.458Z,4.30
2017-12-04T04:40:13.506Z,4.20
2017-12-04T04:42:39.883Z,4.20
2017-12-04T04:45:06.197Z,4.20
2017-12-04T04:47:32.516Z,4.30
2017-12-04T04:49:58.854Z,4.30
2017-12-04T04:52:25.198Z,4.30
2017-12-04T04:54:51.574Z,4.30
2017-12-04T04:57:18.610Z,4.30
2017-12-04T05:02:17.955Z,4.40
2017-12-04T05:04:44.272Z,4.40
2017-12-04T05:07:11.341Z,4.20
2017-12-04T05:09:37.693Z,4.20
2017-12-04T05:12:04.023Z,4.20
2017-12-04T05:14:30.329Z,4.20
2017-12-04T05:16:56.656Z,4.30
2017-12-04T05:19:23.015Z,4.30
2017-12-04T05:21:49.336Z,4.30
2017-12-04T05:24:15.672Z,4.20
2017-12-04T05:26:42.014Z,4.20
2017-12-04T05:29:08.326Z,4.30
2017-12-04T05:31:34.647Z,4.10
2017-12-04T05:34:00.952Z,4.10
2017-12-04T05:36:28.009Z,4.10
2017-12-04T05:38:55.079Z,4.20
2017-12-04T05:41:21.420Z,4.20
2017-12-04T05:43:47.735Z,4.10
2017-12-04T05:46:14.061Z,4.10
2017-12-04T05:48:40.387Z,4.30
2017-12-04T05:51:06.692Z,4.20
2017-12-04T05:53:32.991Z,4.30
2017-12-04T05:55:59.290Z,4.30
2017-12-04T05:58:25.925Z,4.30
2017-12-04T06:00:55.252Z,4.20
2017-12-04T06:03:21.564Z,4.20
2017-12-04T06:05:47.857Z,4.20
2017-12-04T06:08:14.162Z,4.10
2017-12-04T06:10:40.454Z,4.10
2017-12-04T06:13:06.747Z,4.00
2017-12-04T06:15:33.773Z,4.00
2017-12-04T06:18:00.071Z,4.00
2017-12-04T06:20:26.367Z,4.00
2017-12-04T06:22:52.677Z,4.00
2017-12-04T06:25:19.698Z,3.80
2017-12-04T06:27:46.010Z,3.80
2017-12-04T06:30:12.364Z,3.80
2017-12-04T06:32:38.681Z,3.70
2017-12-04T06:35:04.989Z,3.80
2017-12-04T06:37:31.287Z,3.70
2017-12-04T06:39:57.584Z,3.70
2017-12-04T06:42:23.876Z,3.70
2017-12-04T06:44:50.173Z,3.70
2017-12-04T06:47:16.504Z,3.60
2017-12-04T06:49:42.842Z,3.60
2017-12-04T06:52:09.165Z,3.60
2017-12-04T06:54:36.241Z,3.60
2017-12-04T06:57:02.525Z,3.60
2017-12-04T06:59:29.558Z,3.60
2017-12-04T07:01:55.878Z,3.50
2017-12-04T07:04:22.966Z,3.60
2017-12-04T07:06:49.272Z,3.50
2017-12-04T07:09:15.585Z,3.70
2017-12-04T07:11:41.921Z,3.80
2017-12-04T07:14:08.984Z,3.80
2017-12-04T07:16:36.024Z,3.80
2017-12-04T07:19:03.094Z,3.80
2017-12-04T07:21:29.421Z,3.80
2017-12-04T07:23:56.459Z,3.90
2017-12-04T07:26:22.854Z,3.90
2017-12-04T07:28:49.221Z,3.90
2017-12-04T07:31:16.335Z,3.80
2017-12-04T07:33:42.674Z,3.80
2017-12-04T07:36:08.998Z,3.90
2017-12-04T07:38:35.313Z,4.00
2017-12-04T07:41:01.672Z,3.90
2017-12-04T07:43:28.792Z,3.90
2017-12-04T07:45:55.157Z,3.90
2017-12-04T07:48:22.214Z,4.00
2017-12-04T07:50:49.324Z,3.90
2017-12-04T07:53:15.687Z,3.90
2017-12-04T07:55:41.998Z,4.00
2017-12-04T07:58:08.347Z,3.90
2017-12-04T08:00:35.428Z,4.00
2017-12-04T08:03:01.772Z,3.90
2017-12-04T08:05:28.104Z,3.90
2017-12-04T08:07:54.467Z,3.90
2017-12-04T08:10:20.804Z,3.90
2017-12-04T08:12:47.153Z,3.90
2017-12-04T08:15:14.305Z,4.00
2017-12-04T08:17:40.807Z,4.00
2017-12-04T08:20:07.327Z,3.90
2017-12-04T08:22:33.828Z,4.00
2017-12-04T08:25:00.229Z,4.00
2017-12-04T08:27:26.761Z,3.90
2017-12-04T08:29:53.176Z,3.90
2017-12-04T08:32:19.572Z,3.90
2017-12-04T08:34:46.100Z,4.10
2017-12-04T08:37:12.476Z,3.90
2017-12-04T08:39:38.887Z,3.80
2017-12-04T08:42:05.451Z,4.00
2017-12-04T08:44:32.641Z,4.20
2017-12-04T08:46:59.086Z,4.20
2017-12-04T08:49:25.481Z,4.30
2017-12-04T08:51:52.653Z,4.30
2017-12-04T08:54:19.049Z,4.30
2017-12-04T08:56:45.467Z,4.20
2017-12-04T08:59:11.975Z,4.20
2017-12-04T09:01:38.381Z,4.30
2017-12-04T09:04:04.830Z,4.40
2017-12-04T09:06:31.232Z,4.40
2017-12-04T09:08:57.648Z,4.20
2017-12-04T09:11:24.012Z,4.20
2017-12-04T09:13:50.414Z,4.30
2017-12-04T09:16:17.585Z,4.30
2017-12-04T09:18:43.967Z,4.20
2017-12-04T09:21:10.335Z,4.20
2017-12-04T09:23:37.517Z,4.30
2017-12-04T09:26:03.902Z,4.30
2017-12-04T09:28:31.046Z,4.50
2017-12-04T09:30:58.952Z,4.50
2017-12-04T09:33:25.329Z,4.50
2017-12-04T09:35:51.780Z,4.60
2017-12-04T09:38:18.235Z,4.50
2017-12-04T09:40:44.783Z,4.50
2017-12-04T09:43:11.343Z,4.40
2017-12-04T09:45:37.873Z,4.60
2017-12-04T09:48:04.462Z,4.50
2017-12-04T09:50:30.987Z,4.50
2017-12-04T09:52:58.157Z,4.60
2017-12-04T09:55:24.555Z,4.50
2017-12-04T09:57:50.945Z,4.60
2017-12-04T10:00:17.292Z,4.70
2017-12-04T10:02:43.767Z,4.80
2017-12-04T10:05:10.206Z,5.00
2017-12-04T10:07:36.601Z,4.90
2017-12-04T10:10:02.966Z,4.90
2017-12-04T10:12:29.376Z,5.00
2017-12-04T10:14:55.770Z,5.00
2017-12-04T10:17:22.263Z,5.00
2017-12-04T10:19:48.749Z,5.00
2017-12-04T10:22:15.132Z,5.00
2017-12-04T10:24:41.583Z,5.10
2017-12-04T10:27:08.666Z,4.90
2017-12-04T10:29:35.092Z,4.90
2017-12-04T10:32:02.237Z,4.90
2017-12-04T10:34:28.629Z,4.90
2017-12-04T10:36:55.015Z,5.00
2017-12-04T10:39:21.376Z,5.00
2017-12-04T10:41:47.971Z,5.10
2017-12-04T10:44:14.393Z,5.10
2017-12-04T10:46:40.962Z,5.00
2017-12-04T10:49:07.438Z,5.00
2017-12-04T10:51:34.570Z,5.10
2017-12-04T10:54:01.784Z,5.10
2017-12-04T10:56:29.017Z,5.20
2017-12-04T10:58:55.717Z,5.20
2017-12-04T11:01:22.980Z,5.30
2017-12-04T11:03:49.435Z,5.20
2017-12-04T11:06:15.812Z,5.10
2017-12-04T11:08:42.240Z,5.20
2017-12-04T11:11:09.424Z,5.40
2017-12-04T11:13:36.601Z,5.40
2017-12-04T11:16:03.020Z,5.40
2017-12-04T11:18:30.142Z,5.30
2017-12-04T11:20:57.355Z,5.30
2017-12-04T11:23:23.846Z,5.30
2017-12-04T11:25:50.426Z,5.40
2017-12-04T11:28:16.801Z,5.60
2017-12-04T11:30:44.095Z,5.60
2017-12-04T11:33:10.481Z,5.60
2017-12-04T11:35:37.734Z,5.50
2017-12-04T11:38:04.962Z,5.60
2017-12-04T11:40:31.376Z,5.60
2017-12-04T11:42:57.851Z,5.60
2017-12-04T11:45:24.545Z,5.70
2017-12-04T11:47:51.745Z,5.60
2017-12-04T11:50:18.172Z,5.60
2017-12-04T11:52:44.562Z,5.60
2017-12-04T11:55:11.001Z,5.50
2017-12-04T11:57:37.469Z,5.40
2017-12-04T12:00:04.657Z,5.50
2017-12-04T12:02:31.092Z,5.40
2017-12-04T12:04:57.584Z,5.50
2017-12-04T12:07:24.001Z,5.60
2017-12-04T12:09:51.161Z,5.40
2017-12-04T12:12:17.606Z,5.40
2017-12-04T12:14:43.937Z,5.60
2017-12-04T12:17:11.091Z,5.80
2017-12-04T12:19:37.445Z,5.70
2017-12-04T12:22:03.814Z,5.70
2017-12-04T12:24:30.173Z,5.80
2017-12-04T12:26:56.541Z,5.70
2017-12-04T12:29:22.920Z,5.50
2017-12-04T12:31:49.218Z,5.50
2017-12-04T12:34:15.542Z,5.60
2017-12-04T12:36:41.876Z,5.60
2017-12-04T12:39:08.980Z,5.70
2017-12-04T12:41:36.200Z,5.70
2017-12-04T12:44:02.871Z,5.70
2017-12-04T12:46:29.318Z,6.00
2017-12-04T12:48:55.943Z,6.20
2017-12-04T12:51:22.443Z,6.10
2017-12-04T12:53:48.875Z,6.30
2017-12-04T12:56:15.337Z,6.50
2017-12-04T12:58:41.752Z,6.30
2017-12-04T13:01:08.137Z,6.60
2017-12-04T13:03:34.527Z,6.90
2017-12-04T13:06:00.956Z,6.90
2017-12-04T13:08:27.317Z,6.70
2017-12-04T13:10:54.381Z,6.00
2017-12-04T13:13:21.442Z,6.00
2017-12-04T13:15:47.837Z,6.00
2017-12-04T13:18:14.937Z,6.10
2017-12-04T13:20:41.344Z,6.10
2017-12-04T13:23:07.663Z,6.20
2017-12-04T13:25:34.725Z,6.30
2017-12-04T13:28:01.879Z,6.20
2017-12-04T13:30:28.325Z,6.20
2017-12-04T13:33:07.085Z,6.30
2017-12-04T13:35:45.826Z,6.30
2017-12-04T13:38:12.183Z,6.10
2017-12-04T13:40:38.537Z,5.90
2017-12-04T13:43:04.935Z,5.90
2017-12-04T13:45:32.107Z,5.80
2017-12-04T13:47:58.465Z,5.80
2017-12-04T13:50:24.986Z,5.70
2017-12-04T13:52:51.390Z,5.70
2017-12-04T13:55:17.785Z,5.70
2017-12-04T13:57:44.952Z,5.70
2017-12-04T14:00:11.372Z,5.60
2017-12-04T14:02:37.780Z,5.70
2017-12-04T14:05:04.141Z,5.70
2017-12-04T14:07:30.494Z,5.70
2017-12-04T14:09:56.893Z,5.80
2017-12-04T14:12:24.028Z,5.70
2017-12-04T14:14:51.167Z,5.70
2017-12-04T14:17:17.584Z,5.70
2017-12-04T14:19:43.981Z,5.60
2017-12-04T14:22:11.054Z,5.50
2017-12-04T14:24:37.482Z,5.50
2017-12-04T14:27:03.819Z,5.60
2017-12-04T14:29:30.164Z,5.80
2017-12-04T14:31:56.495Z,5.50
2017-12-04T14:34:22.825Z,5.60
2017-12-04T14:36:49.145Z,5.30
2017-12-04T14:39:15.497Z,5.20
2017-12-04T14:41:41.841Z,5.20
2017-12-04T14:44:08.195Z,5.10
2017-12-04T14:46:35.315Z,5.10
2017-12-04T14:49:01.682Z,5.00
2017-12-04T14:51:28.047Z,5.10
2017-12-04T14:53:54.439Z,5.20
2017-12-04T14:56:20.806Z,5.30
2017-12-04T14:58:47.130Z,5.30
2017-12-04T15:01:13.502Z,5.30
2017-12-04T15:03:39.907Z,5.20
2017-12-04T15:06:06.269Z,5.10
2017-12-04T15:08:32.645Z,5.10
2017-12-04T15:10:58.993Z,5.00
2017-12-04T15:13:25.357Z,5.00
2017-12-04T15:15:52.462Z,4.80
2017-12-04T15:18:18.822Z,4.70
2017-12-04T15:20:45.149Z,4.70
2017-12-04T15:23:11.457Z,4.70
2017-12-04T15:25:38.526Z,4.60
2017-12-04T15:28:04.893Z,4.60
2017-12-04T15:30:31.214Z,4.60
2017-12-04T15:32:57.533Z,4.80
2017-12-04T15:35:23.866Z,4.70
2017-12-04T15:37:50.183Z,4.80
2017-12-04T15:40:16.516Z,5.00
2017-12-04T15:42:42.836Z,4.80
2017-12-04T15:45:09.161Z,5.00
2017-12-04T15:47:35.460Z,5.00
2017-12-04T15:50:02.614Z,4.80
2017-12-04T15:52:29.690Z,4.90
2017-12-04T15:54:56.013Z,4.90
2017-12-04T15:57:22.341Z,4.90
2017-12-04T15:59:48.664Z,4.70
2017-12-04T16:02:15.000Z,4.90
2017-12-04T16:04:41.316Z,5.00
2017-12-04T16:07:07.648Z,5.00
2017-12-04T16:09:33.977Z,4.90
2017-12-04T16:12:00.335Z,5.00
2017-12-04T16:14:26.646Z,4.90
2017-12-04T16:16:52.955Z,5.00
2017-12-04T16:19:20.040Z,4.80
2017-12-04T16:21:46.363Z,4.80
2017-12-04T16:24:12.704Z,5.00
2017-12-04T16:26:39.008Z,5.10
2017-12-04T16:29:06.056Z,5.00
2017-12-04T16:31:33.103Z,5.00
2017-12-04T16:33:59.440Z,5.00
2017-12-04T16:36:25.790Z,4.90
2017-12-04T16:38:52.208Z,5.00
2017-12-04T16:41:18.557Z,5.00
2017-12-04T16:43:44.908Z,5.00
2017-12-04T16:46:11.286Z,5.00
2017-12-04T16:48:38.361Z,5.00
2017-12-04T16:51:04.711Z,4.90
2017-12-04T16:53:31.040Z,4.90
2017-12-04T16:55:57.354Z,5.00
2017-12-04T16:58:23.684Z,5.00
2017-12-04T17:00:50.764Z,4.90
2017-12-04T17:03:17.860Z,4.90
2017-12-04T17:05:44.478Z,4.80
2017-12-04T17:08:10.851Z,4.90
2017-12-04T17:10:37.190Z,4.90
2017-12-04T17:13:03.534Z,5.00
2017-12-04T17:15:29.884Z,4.80
2017-12-04T17:17:56.216Z,4.60
2017-12-04T17:20:23.302Z,4.70
2017-12-04T17:22:49.654Z,4.60
2017-12-04T17:25:16.027Z,4.60
2017-12-04T17:27:43.124Z,4.70
2017-12-04T17:30:09.459Z,4.70
2017-12-04T17:32:35.861Z,4.60
2017-12-04T17:35:02.913Z,4.60
2017-12-04T17:37:29.240Z,4.60
2017-12-04T17:39:56.294Z,4.50
2017-12-04T17:42:22.677Z,4.50
2017-12-04T17:44:49.050Z,4.40
2017-12-04T17:47:15.394Z,4.40
2017-12-04T17:49:41.802Z,4.20
2017-12-04T17:52:08.181Z,4.10
2017-12-04T17:54:34.593Z,4.20
2017-12-04T17:57:01.734Z,4.20
2017-12-04T17:59:28.070Z,4.20
2017-12-04T18:01:54.396Z,4.20
2017-12-04T18:04:20.734Z,4.30
2017-12-04T18:06:47.075Z,4.20
2017-12-04T18:09:13.459Z,4.30
2017-12-04T18:11:40.558Z,4.30
2017-12-04T18:14:06.910Z,4.30
2017-12-04T18:16:33.299Z,4.20
2017-12-04T18:18:59.654Z,4.30
2017-12-04T18:21:26.014Z,4.30
2017-12-04T18:23:52.337Z,4.30
2017-12-04T18:26:18.693Z,4.20
2017-12-04T18:28:45.765Z,4.20
2017-12-04T18:31:12.131Z,4.20
2017-12-04T18:33:38.489Z,4.20
2017-12-04T18:36:04.816Z,4.20
2017-12-04T18:38:31.158Z,4.20
2017-12-04T18:40:58.240Z,4.00
2017-12-04T18:43:24.575Z,4.00
2017-12-04T18:45:50.996Z,4.00
2017-12-04T18:48:17.335Z,4.00
2017-12-04T18:50:43.702Z,3.90
2017-12-04T18:53:10.018Z,3.90
2017-12-04T18:55:36.484Z,3.90
2017-12-04T18:58:03.025Z,3.90
2017-12-04T19:00:29.489Z,3.90
2017-12-04T19:02:55.972Z,3.80
2017-12-04T19:05:22.339Z,3.80
2017-12-04T19:07:48.749Z,3.90
2017-12-04T19:10:15.871Z,3.90
2017-12-04T19:12:42.225Z,3.90
2017-12-04T19:15:08.652Z,4.00
2017-12-04T19:17:35.762Z,4.10
2017-12-04T19:20:02.128Z,4.10
2017-12-04T19:22:29.970Z,4.10
2017-12-04T19:24:56.372Z,4.20
2017-12-04T19:27:22.724Z,4.20
2017-12-04T19:29:49.072Z,4.10
2017-12-04T19:32:15.547Z,4.10
2017-12-04T19:34:41.966Z,4.10
2017-12-04T19:37:09.090Z,4.10
2017-12-04T19:39:35.689Z,4.10
2017-12-04T19:42:02.839Z,4.20
2017-12-04T19:44:29.206Z,4.10
2017-12-04T19:46:55.712Z,4.00
2017-12-04T19:49:22.189Z,3.90
2017-12-04T19:51:49.326Z,4.10
2017-12-04T19:54:15.776Z,4.00
2017-12-04T19:56:42.905Z,4.20
2017-12-04T19:59:09.325Z,4.20
2017-12-04T20:01:35.665Z,4.20
2017-12-04T20:04:02.128Z,4.20
2017-12-04T20:06:29.294Z,4.20
2017-12-04T20:08:55.702Z,4.10
2017-12-04T20:11:22.946Z,4.20
2017-12-04T20:13:50.095Z,4.40
2017-12-04T20:16:16.488Z,4.40
2017-12-04T20:18:42.834Z,4.40
2017-12-04T20:21:09.186Z,4.30
2017-12-04T20:23:35.506Z,4.40
2017-12-04T20:26:01.917Z,4.50
2017-12-04T20:28:28.342Z,4.50
2017-12-04T20:30:54.688Z,4.60
2017-12-04T20:33:20.996Z,4.50
2017-12-04T20:35:48.158Z,4.50
2017-12-04T20:38:14.492Z,4.50
2017-12-04T20:40:40.853Z,4.50
2017-12-04T20:43:08.695Z,4.30
2017-12-04T20:45:35.039Z,4.30
2017-12-04T20:48:01.429Z,4.40
2017-12-04T20:50:27.770Z,4.50
2017-12-04T20:52:54.102Z,4.60
2017-12-04T20:55:20.425Z,4.60
2017-12-04T20:57:46.752Z,4.60
2017-12-04T21:00:13.112Z,4.50
2017-12-04T21:02:39.485Z,4.60
2017-12-04T21:05:05.835Z,4.50
2017-12-04T21:07:45.089Z,4.60
2017-12-04T21:10:23.832Z,4.60
2017-12-04T21:13:03.063Z,4.60
2017-12-04T21:15:31.308Z,4.60
2017-12-04T21:17:58.366Z,4.70
2017-12-04T21:20:24.675Z,4.70
2017-12-04T21:22:51.753Z,4.80
2017-12-04T21:25:18.089Z,4.80
2017-12-04T21:27:44.410Z,4.90
2017-12-04T21:30:10.735Z,4.80
2017-12-04T21:32:37.084Z,4.80
2017-12-04T21:35:03.545Z,4.70
2017-12-04T21:37:29.864Z,4.80
2017-12-04T21:39:56.208Z,5.00
2017-12-04T21:42:22.565Z,4.80
2017-12-04T21:44:49.693Z,4.90
2017-12-04T21:47:16.025Z,4.90
2017-12-04T21:49:43.098Z,4.90
2017-12-04T21:52:10.168Z,4.90
2017-12-04T21:54:36.489Z,4.90
2017-12-04T21:57:02.817Z,4.90
2017-12-04T21:59:29.136Z,5.00
2017-12-04T22:01:56.207Z,5.00
2017-12-04T22:04:22.532Z,5.00
2017-12-04T22:06:48.870Z,4.90
2017-12-04T22:09:15.243Z,5.00
2017-12-04T22:11:41.562Z,5.00
2017-12-04T22:14:07.914Z,5.10
2017-12-04T22:16:34.983Z,5.10
2017-12-04T22:19:02.057Z,5.10
2017-12-04T22:21:28.370Z,5.00
2017-12-04T22:23:54.706Z,5.10
2017-12-04T22:26:21.041Z,5.10
2017-12-04T22:28:47.378Z,5.10
2017-12-04T22:31:13.738Z,5.10
2017-12-04T22:33:40.079Z,5.10
2017-12-04T22:36:06.522Z,5.10
2017-12-04T22:38:32.865Z,5.20
2017-12-04T22:40:59.931Z,5.20
2017-12-04T22:43:26.370Z,5.20
2017-12-04T22:45:52.711Z,5.20
2017-12-04T22:48:19.037Z,5.20
2017-12-04T22:50:45.357Z,5.20
2017-12-04T22:53:11.689Z,5.20
2017-12-04T22:55:38.034Z,5.10
2017-12-04T22:58:04.392Z,5.10
2017-12-04T23:00:30.717Z,5.10
2017-12-04T23:02:58.050Z,5.10
2017-12-04T23:05:24.396Z,5.10
2017-12-04T23:07:50.751Z,5.20
2017-12-04T23:10:17.085Z,5.30
2017-12-04T23:12:43.411Z,5.30
2017-12-04T23:15:09.747Z,5.30
2017-12-04T23:17:36.087Z,5.30
2017-12-04T23:20:03.161Z,5.20
2017-12-04T23:22:30.256Z,5.20
2017-12-04T23:24:56.614Z,5.20
2017-12-04T23:27:23.690Z,5.30
2017-12-04T23:29:50.060Z,5.20
2017-12-04T23:32:16.385Z,5.30
2017-12-04T23:34:42.747Z,5.30
2017-12-04T23:37:09.075Z,5.40
2017-12-04T23:39:35.411Z,5.40
2017-12-04T23:42:01.749Z,5.40
2017-12-04T23:44:28.812Z,5.40
2017-12-04T23:46:55.882Z,5.40
2017-12-04T23:49:22.905Z,5.40
2017-12-04T23:51:49.981Z,5.40
2017-12-04T23:54:19.267Z,5.30
2017-12-04T23:56:45.596Z,5.30
2017-12-04T23:59:11.923Z,5.30
